createdAt,value
2024-01-18T00:00:55.152Z,5.38
2024-01-18T00:03:25.920Z,5.42
2024-01-18T00:05:56.762Z,5.45
2024-01-18T00:08:27.365Z,5.48
2024-01-18T00:10:57.881Z,5.49
2024-01-18T00:13:28.409Z,5.48
2024-01-18T00:15:58.955Z,5.49
2024-01-18T00:18:29.941Z,5.48
2024-01-18T00:21:00.863Z,5.46
2024-01-18T00:23:31.477Z,5.45
2024-01-18T00:26:02.123Z,5.44
2024-01-18T00:28:32.736Z,5.43
2024-01-18T00:31:03.338Z,5.42
2024-01-18T00:33:33.997Z,5.43
2024-01-18T00:36:04.907Z,5.44
2024-01-18T00:38:35.592Z,5.46
2024-01-18T00:41:06.604Z,5.48
2024-01-18T00:43:37.171Z,5.51
2024-01-18T00:46:08.061Z,5.51
2024-01-18T00:48:38.711Z,5.50
2024-01-18T00:51:09.644Z,5.49
2024-01-18T00:53:40.831Z,5.47
2024-01-18T00:56:12.725Z,5.47
2024-01-18T00:58:43.551Z,5.45
2024-01-18T01:01:14.082Z,5.46
2024-01-18T01:03:44.705Z,5.45
2024-01-18T01:06:15.686Z,5.47
2024-01-18T01:08:46.298Z,5.51
2024-01-18T01:11:16.821Z,5.55
2024-01-18T01:13:47.506Z,5.57
2024-01-18T01:16:18.060Z,5.59
2024-01-18T01:18:48.682Z,5.61
2024-01-18T01:21:19.329Z,5.64
2024-01-18T01:23:52.752Z,5.66
2024-01-18T01:26:23.283Z,5.70
2024-01-18T01:28:53.777Z,5.72
2024-01-18T01:31:24.384Z,5.73
2024-01-18T01:33:54.996Z,5.75
2024-01-18T01:36:25.853Z,5.77
2024-01-18T01:38:56.452Z,5.81
2024-01-18T01:41:26.981Z,5.86
2024-01-18T01:44:02.094Z,5.88
2024-01-18T01:46:33.566Z,5.91
2024-01-18T01:49:07.593Z,5.92
2024-01-18T01:51:43.789Z,5.91
2024-01-18T01:54:14.368Z,5.89
2024-01-18T01:56:47.488Z,5.87
2024-01-18T01:59:18.909Z,5.86
2024-01-18T02:01:50.594Z,5.84
2024-01-18T02:04:21.573Z,5.84
2024-01-18T02:06:54.110Z,5.85
2024-01-18T02:09:25.275Z,5.87
2024-01-18T02:11:56.051Z,5.87
2024-01-18T02:14:26.892Z,5.87
2024-01-18T02:16:58.287Z,5.88
2024-01-18T02:19:28.919Z,5.90
2024-01-18T02:21:59.882Z,5.90
2024-01-18T02:24:34.911Z,5.89
2024-01-18T02:27:05.960Z,5.87
2024-01-18T02:29:36.673Z,5.84
2024-01-18T02:32:07.917Z,5.81
2024-01-18T02:34:41.383Z,5.81
2024-01-18T02:37:12.597Z,5.82
2024-01-18T02:39:43.378Z,5.82
2024-01-18T02:42:14.035Z,5.82
2024-01-18T02:44:46.636Z,5.82
2024-01-18T02:47:17.408Z,5.81
2024-01-18T02:49:47.938Z,5.81
2024-01-18T02:52:19.556Z,5.79
2024-01-18T02:54:50.107Z,5.78
2024-01-18T02:57:20.687Z,5.79
2024-01-18T02:59:51.316Z,5.82
2024-01-18T03:02:21.813Z,5.83
2024-01-18T03:04:52.282Z,5.83
2024-01-18T03:07:22.754Z,5.81
2024-01-18T03:09:53.257Z,5.79
2024-01-18T03:12:23.893Z,5.77
2024-01-18T03:14:54.393Z,5.74
2024-01-18T03:17:24.910Z,5.72
2024-01-18T03:19:55.471Z,5.70
2024-01-18T03:22:25.987Z,5.69
2024-01-18T03:24:56.442Z,5.66
2024-01-18T03:27:27.030Z,5.63
2024-01-18T03:29:57.575Z,5.60
2024-01-18T03:32:28.179Z,5.58
2024-01-18T03:34:58.628Z,5.56
2024-01-18T03:37:29.089Z,5.52
2024-01-18T03:40:00.031Z,5.49
2024-01-18T03:42:30.627Z,5.45
2024-01-18T03:45:01.179Z,5.47
2024-01-18T03:47:31.704Z,5.48
2024-01-18T03:50:02.969Z,5.48
2024-01-18T03:52:33.956Z,5.47
2024-01-18T03:55:06.587Z,5.47
2024-01-18T03:57:37.364Z,5.46
2024-01-18T04:00:10.994Z,5.43
2024-01-18T04:02:43.086Z,5.41
2024-01-18T04:05:13.784Z,5.37
2024-01-18T04:07:44.503Z,5.32
2024-01-18T04:10:15.136Z,5.30
2024-01-18T04:12:46.826Z,5.26
2024-01-18T04:15:17.514Z,5.23
2024-01-18T04:17:48.479Z,5.20
2024-01-18T04:20:23.147Z,5.16
2024-01-18T04:22:53.845Z,5.12
2024-01-18T04:25:24.396Z,5.08
2024-01-18T04:27:54.975Z,5.06
2024-01-18T04:30:26.390Z,5.06
2024-01-18T04:32:57.172Z,5.05
2024-01-18T04:35:27.822Z,5.04
2024-01-18T04:37:58.294Z,5.03
2024-01-18T04:40:28.907Z,5.02
2024-01-18T04:42:59.927Z,5.01
2024-01-18T04:45:30.520Z,4.99
2024-01-18T04:48:01.405Z,4.96
2024-01-18T04:50:32.184Z,4.95
2024-01-18T04:53:03.166Z,4.94
2024-01-18T04:55:33.655Z,4.92
2024-01-18T04:58:04.318Z,4.91
2024-01-18T05:00:34.946Z,4.89
2024-01-18T05:03:06.039Z,4.87
2024-01-18T05:05:38.110Z,4.86
2024-01-18T05:08:09.751Z,4.81
2024-01-18T05:10:40.325Z,4.76
2024-01-18T05:13:10.822Z,4.70
2024-01-18T05:15:41.576Z,4.66
2024-01-18T05:18:12.579Z,4.64
2024-01-18T05:20:43.252Z,4.59
2024-01-18T05:23:13.712Z,4.54
2024-01-18T05:25:45.000Z,4.48
2024-01-18T05:28:15.477Z,4.44
2024-01-18T05:30:46.389Z,4.39
2024-01-18T05:33:17.015Z,4.35
2024-01-18T05:35:47.616Z,4.34
2024-01-18T05:38:18.094Z,4.35
2024-01-18T05:40:48.600Z,4.34
2024-01-18T05:43:19.452Z,4.32
2024-01-18T05:45:50.040Z,4.29
2024-01-18T05:48:20.669Z,4.25
2024-01-18T05:50:51.251Z,4.22
2024-01-18T05:53:21.772Z,4.20
2024-01-18T05:55:52.279Z,4.21
2024-01-18T05:58:23.377Z,4.20
2024-01-18T06:00:53.962Z,4.18
2024-01-18T06:03:24.585Z,4.16
2024-01-18T06:05:55.245Z,4.11
2024-01-18T06:08:25.758Z,4.00
2024-01-18T06:10:56.324Z,3.95
2024-01-18T06:13:26.826Z,3.96
2024-01-18T06:15:57.347Z,3.99
2024-01-18T06:18:28.079Z,4.01
2024-01-18T06:20:58.746Z,4.03
2024-01-18T06:23:29.285Z,4.01
2024-01-18T06:26:00.000Z,3.99
2024-01-18T06:28:30.500Z,3.96
2024-01-18T06:31:01.068Z,3.93
2024-01-18T06:33:31.669Z,3.94
2024-01-18T06:36:02.368Z,3.95
2024-01-18T06:38:33.035Z,3.95
2024-01-18T06:41:04.178Z,3.92
2024-01-18T06:43:34.627Z,3.90
2024-01-18T06:46:06.451Z,3.88
2024-01-18T06:48:36.992Z,3.84
2024-01-18T06:51:07.891Z,3.83
2024-01-18T06:53:38.351Z,3.82
2024-01-18T06:56:15.103Z,3.84
2024-01-18T06:58:46.198Z,3.84
2024-01-18T07:01:16.824Z,3.83
2024-01-18T07:03:47.567Z,3.82
2024-01-18T07:06:18.190Z,3.80
2024-01-18T07:08:49.811Z,3.78
2024-01-18T07:11:20.304Z,3.79
2024-01-18T07:13:50.843Z,3.79
2024-01-18T07:16:21.344Z,3.77
2024-01-18T07:18:51.939Z,3.75
2024-01-18T07:21:22.475Z,3.77
2024-01-18T07:23:52.976Z,3.77
2024-01-18T07:26:23.898Z,3.77
2024-01-18T07:28:54.388Z,3.79
2024-01-18T07:31:24.868Z,3.80
2024-01-18T07:33:55.473Z,3.80
2024-01-18T07:36:26.029Z,3.78
2024-01-18T07:38:56.598Z,3.78
2024-01-18T07:41:28.126Z,3.82
2024-01-18T07:44:02.254Z,3.86
2024-01-18T07:46:32.751Z,3.89
2024-01-18T07:49:04.866Z,3.91
2024-01-18T07:51:35.454Z,3.94
2024-01-18T07:54:06.314Z,3.98
2024-01-18T07:56:37.314Z,4.00
2024-01-18T07:59:07.864Z,4.02
2024-01-18T08:01:40.336Z,4.03
2024-01-18T08:04:11.267Z,4.01
2024-01-18T08:06:43.985Z,3.98
2024-01-18T08:09:15.001Z,3.97
2024-01-18T08:11:45.511Z,3.96
2024-01-18T08:14:18.260Z,3.94
2024-01-18T08:16:49.049Z,3.94
2024-01-18T08:19:20.386Z,3.94
2024-01-18T08:21:50.945Z,3.94
2024-01-18T08:24:21.474Z,3.97
2024-01-18T08:26:51.945Z,4.00
2024-01-18T08:29:22.426Z,4.00
2024-01-18T08:31:53.027Z,3.99
2024-01-18T08:34:23.827Z,3.98
2024-01-18T08:36:54.407Z,3.97
2024-01-18T08:39:25.030Z,3.96
2024-01-18T08:41:57.742Z,3.97
2024-01-18T08:44:30.152Z,3.96
2024-01-18T08:47:00.769Z,3.95
2024-01-18T08:49:31.500Z,3.94
2024-01-18T08:52:02.239Z,3.95
2024-01-18T08:54:33.014Z,3.97
2024-01-18T08:57:03.662Z,3.98
2024-01-18T08:59:35.134Z,3.97
2024-01-18T09:02:13.984Z,3.97
2024-01-18T09:04:49.078Z,3.97
2024-01-18T09:07:19.959Z,3.99
2024-01-18T09:09:50.693Z,3.99
2024-01-18T09:12:21.269Z,3.99
2024-01-18T09:14:51.807Z,3.98
2024-01-18T09:17:22.342Z,3.96
2024-01-18T09:19:53.932Z,3.95
2024-01-18T09:22:24.583Z,3.95
2024-01-18T09:24:57.172Z,3.93
2024-01-18T09:27:28.697Z,3.90
2024-01-18T09:29:59.182Z,3.89
2024-01-18T09:32:29.651Z,3.90
2024-01-18T09:35:00.229Z,3.93
2024-01-18T09:37:30.886Z,3.94
2024-01-18T09:40:01.335Z,3.95
2024-01-18T09:42:34.889Z,3.97
2024-01-18T09:45:11.191Z,3.99
2024-01-18T09:47:42.684Z,3.97
2024-01-18T09:50:16.716Z,3.96
2024-01-18T09:52:47.232Z,3.99
2024-01-18T09:55:18.357Z,4.00
2024-01-18T09:57:54.611Z,4.00
2024-01-18T10:00:29.311Z,4.01
2024-01-18T10:02:59.864Z,4.01
2024-01-18T10:05:30.458Z,3.99
2024-01-18T10:08:01.335Z,3.96
2024-01-18T10:10:31.900Z,3.94
2024-01-18T10:13:05.084Z,3.92
2024-01-18T10:15:37.131Z,3.91
2024-01-18T10:18:08.665Z,3.90
2024-01-18T10:20:39.713Z,3.89
2024-01-18T10:23:11.576Z,3.88
2024-01-18T10:25:45.959Z,3.92
2024-01-18T10:28:16.591Z,3.97
2024-01-18T10:30:53.949Z,4.01
2024-01-18T10:33:24.534Z,4.04
2024-01-18T10:35:55.095Z,4.10
2024-01-18T10:38:31.150Z,4.13
2024-01-18T10:41:02.717Z,4.13
2024-01-18T10:43:34.459Z,4.13
2024-01-18T10:46:06.886Z,4.10
2024-01-18T10:48:38.125Z,4.06
2024-01-18T10:51:09.439Z,4.03
2024-01-18T10:53:41.975Z,4.03
2024-01-18T10:56:13.732Z,4.06
2024-01-18T10:58:44.414Z,4.06
2024-01-18T11:01:15.033Z,4.05
2024-01-18T11:03:47.848Z,4.04
2024-01-18T11:06:19.757Z,4.03
2024-01-18T11:08:51.483Z,4.02
2024-01-18T11:11:22.794Z,4.00
2024-01-18T11:13:53.997Z,4.02
2024-01-18T11:16:24.665Z,4.04
2024-01-18T11:18:59.308Z,4.06
2024-01-18T11:21:42.047Z,4.06
2024-01-18T11:24:14.219Z,4.04
2024-01-18T11:26:44.750Z,4.02
2024-01-18T11:29:25.941Z,4.03
2024-01-18T11:31:56.651Z,4.05
2024-01-18T11:34:33.563Z,4.08
2024-01-18T11:37:14.727Z,4.10
2024-01-18T11:39:59.325Z,4.13
2024-01-18T11:42:31.473Z,4.14
2024-01-18T11:45:04.381Z,4.15
2024-01-18T11:47:36.295Z,4.17
2024-01-18T11:50:09.349Z,4.15
2024-01-18T11:52:41.194Z,4.13
2024-01-18T11:55:15.318Z,4.13
2024-01-18T11:57:46.132Z,4.13
2024-01-18T12:00:17.914Z,4.13
2024-01-18T12:02:48.901Z,4.14
2024-01-18T12:05:19.945Z,4.13
2024-01-18T12:07:51.831Z,4.11
2024-01-18T12:10:23.074Z,4.08
2024-01-18T12:12:55.650Z,4.07
2024-01-18T12:15:26.295Z,4.08
2024-01-18T12:17:58.239Z,4.08
2024-01-18T12:20:28.930Z,4.05
2024-01-18T12:23:02.169Z,4.01
2024-01-18T12:25:34.641Z,3.98
2024-01-18T12:28:06.235Z,3.96
2024-01-18T12:30:36.968Z,3.97
2024-01-18T12:33:08.721Z,3.98
2024-01-18T12:35:41.190Z,3.99
2024-01-18T12:38:11.678Z,4.00
2024-01-18T12:40:42.151Z,4.01
2024-01-18T12:43:12.984Z,4.01
2024-01-18T12:45:44.252Z,4.01
2024-01-18T12:48:15.041Z,4.01
2024-01-18T12:50:45.706Z,4.04
2024-01-18T12:53:16.385Z,4.06
2024-01-18T12:55:47.213Z,4.05
2024-01-18T12:58:18.846Z,4.04
2024-01-18T13:00:54.116Z,4.04
2024-01-18T13:03:25.163Z,4.04
2024-01-18T13:05:58.776Z,4.01
2024-01-18T13:08:29.287Z,3.99
2024-01-18T13:11:00.171Z,3.97
2024-01-18T13:13:32.103Z,3.96
2024-01-18T13:16:03.486Z,3.95
2024-01-18T13:18:34.225Z,3.94
2024-01-18T13:21:06.583Z,3.93
2024-01-18T13:23:37.439Z,3.93
2024-01-18T13:26:08.971Z,3.92
2024-01-18T13:28:39.823Z,3.90
2024-01-18T13:31:10.994Z,3.89
2024-01-18T13:33:42.105Z,3.88
2024-01-18T13:36:13.196Z,3.87
2024-01-18T13:38:44.066Z,3.87
2024-01-18T13:41:14.549Z,3.88
2024-01-18T13:43:46.877Z,3.89
2024-01-18T13:46:18.518Z,3.89
2024-01-18T13:48:49.074Z,3.90
2024-01-18T13:51:19.664Z,3.89
2024-01-18T13:53:51.802Z,3.89
2024-01-18T13:56:23.838Z,3.89
2024-01-18T13:58:54.504Z,3.89
2024-01-18T14:01:25.150Z,3.88
2024-01-18T14:03:56.002Z,3.88
2024-01-18T14:06:26.934Z,3.88
2024-01-18T14:08:58.790Z,3.87
2024-01-18T14:11:29.607Z,3.88
2024-01-18T14:14:00.092Z,3.88
2024-01-18T14:16:30.822Z,3.87
2024-01-18T14:19:01.386Z,3.87
2024-01-18T14:21:32.068Z,3.87
2024-01-18T14:24:02.794Z,3.84
2024-01-18T14:26:33.545Z,3.81
2024-01-18T14:29:11.830Z,3.79
2024-01-18T14:31:42.471Z,3.77
2024-01-18T14:34:13.039Z,3.74
2024-01-18T14:36:43.715Z,3.74
2024-01-18T14:39:16.591Z,3.73
2024-01-18T14:41:47.254Z,3.71
2024-01-18T14:44:17.729Z,3.69
2024-01-18T14:46:48.252Z,3.67
2024-01-18T14:49:22.288Z,3.64
2024-01-18T14:51:52.963Z,3.62
2024-01-18T14:54:23.576Z,3.60
2024-01-18T14:56:54.238Z,3.57
2024-01-18T14:59:24.960Z,3.53
2024-01-18T15:01:55.572Z,3.50
2024-01-18T15:04:26.265Z,3.48
2024-01-18T15:06:56.983Z,3.47
2024-01-18T15:09:27.596Z,3.46
2024-01-18T15:11:58.165Z,3.45
2024-01-18T15:14:28.714Z,3.44
2024-01-18T15:16:59.521Z,3.42
2024-01-18T15:19:30.068Z,3.39
2024-01-18T15:22:01.061Z,3.36
2024-01-18T15:24:31.938Z,3.35
2024-01-18T15:27:02.461Z,3.34
2024-01-18T15:29:33.014Z,3.33
2024-01-18T15:32:04.536Z,3.33
2024-01-18T15:34:35.991Z,3.31
2024-01-18T15:37:07.144Z,3.30
2024-01-18T15:39:37.722Z,3.28
2024-01-18T15:42:08.579Z,3.27
2024-01-18T15:44:39.066Z,3.27
2024-01-18T15:47:15.099Z,3.29
2024-01-18T15:49:46.013Z,3.32
2024-01-18T15:52:16.637Z,3.32
2024-01-18T15:54:47.329Z,3.34
2024-01-18T15:57:18.141Z,3.40
2024-01-18T15:59:49.315Z,3.44
2024-01-18T16:02:19.975Z,3.47
2024-01-18T16:04:51.448Z,3.48
2024-01-18T16:07:22.115Z,3.48
2024-01-18T16:09:52.739Z,3.48
2024-01-18T16:12:23.322Z,3.47
2024-01-18T16:14:53.917Z,3.46
2024-01-18T16:17:24.493Z,3.45
2024-01-18T16:19:55.153Z,3.44
2024-01-18T16:22:25.653Z,3.44
2024-01-18T16:24:56.302Z,3.45
2024-01-18T16:27:26.965Z,3.43
2024-01-18T16:30:03.190Z,3.42
2024-01-18T16:32:37.427Z,3.39
2024-01-18T16:35:11.368Z,3.35
2024-01-18T16:37:42.066Z,3.34
2024-01-18T16:40:13.639Z,3.35
2024-01-18T16:42:44.217Z,3.37
2024-01-18T16:45:15.553Z,3.37
2024-01-18T16:47:46.109Z,3.36
2024-01-18T16:50:16.848Z,3.35
2024-01-18T16:52:47.409Z,3.37
2024-01-18T16:55:18.091Z,3.37
2024-01-18T17:00:24.757Z,3.35
2024-01-18T17:02:55.302Z,3.35
2024-01-18T17:05:26.256Z,3.34
2024-01-18T17:07:57.187Z,3.33
2024-01-18T17:10:27.753Z,3.30
2024-01-18T17:12:58.303Z,3.30
2024-01-18T17:15:28.831Z,3.28
2024-01-18T17:17:59.942Z,3.23
2024-01-18T17:20:30.854Z,3.20
2024-01-18T17:23:01.498Z,3.19
2024-01-18T17:25:32.062Z,3.18
2024-01-18T17:28:02.538Z,3.17
2024-01-18T17:30:33.031Z,3.18
2024-01-18T17:33:04.019Z,3.18
2024-01-18T17:35:36.096Z,3.17
2024-01-18T17:38:07.810Z,3.19
2024-01-18T17:40:38.521Z,3.21
2024-01-18T17:43:09.122Z,3.21
2024-01-18T17:45:39.599Z,3.23
2024-01-18T17:48:10.942Z,3.25
2024-01-18T17:50:44.279Z,3.25
2024-01-18T17:53:15.278Z,3.25
2024-01-18T17:55:47.234Z,3.26
2024-01-18T17:58:17.781Z,3.26
2024-01-18T18:00:48.477Z,3.25
2024-01-18T18:03:19.088Z,3.23
2024-01-18T18:05:49.718Z,3.20
2024-01-18T18:08:20.505Z,3.17
2024-01-18T18:10:51.988Z,3.14
2024-01-18T18:13:23.974Z,3.11
2024-01-18T18:15:55.331Z,3.08
2024-01-18T18:18:26.495Z,3.04
2024-01-18T18:20:57.435Z,3.01
2024-01-18T18:23:28.015Z,3.00
2024-01-18T18:26:02.322Z,3.00
2024-01-18T18:28:35.184Z,3.03
2024-01-18T18:31:06.101Z,3.07
2024-01-18T18:33:36.784Z,3.10
2024-01-18T18:36:08.237Z,3.14
2024-01-18T18:38:39.843Z,3.15
2024-01-18T18:41:11.088Z,3.15
2024-01-18T18:43:43.823Z,3.14
2024-01-18T18:46:14.680Z,3.12
2024-01-18T18:48:46.594Z,3.10
2024-01-18T18:51:17.226Z,3.06
2024-01-18T18:53:47.838Z,3.03
2024-01-18T18:56:18.386Z,3.00
2024-01-18T18:58:48.978Z,2.98
2024-01-18T19:01:19.650Z,2.91
2024-01-18T19:03:50.194Z,2.89
2024-01-18T19:06:20.812Z,2.90
2024-01-18T19:08:52.820Z,2.88
2024-01-18T19:11:23.824Z,2.84
2024-01-18T19:13:54.695Z,2.81
2024-01-18T19:16:25.380Z,2.81
2024-01-18T19:18:55.945Z,2.83
2024-01-18T19:21:26.618Z,2.84
2024-01-18T19:23:57.194Z,2.85
2024-01-18T19:26:27.693Z,2.88
2024-01-18T19:28:58.276Z,2.88
2024-01-18T19:31:28.749Z,2.88
2024-01-18T19:33:59.261Z,2.87
2024-01-18T19:36:29.801Z,2.85
2024-01-18T19:39:00.698Z,2.83
2024-01-18T19:41:31.310Z,2.83
2024-01-18T19:44:01.916Z,2.83
2024-01-18T19:46:32.419Z,2.85
2024-01-18T19:49:03.368Z,2.88
2024-01-18T19:51:34.234Z,2.89
2024-01-18T19:54:05.147Z,2.90
2024-01-18T19:56:35.793Z,2.91
2024-01-18T19:59:08.245Z,2.92
2024-01-18T20:01:38.781Z,2.91
2024-01-18T20:04:09.260Z,2.91
2024-01-18T20:06:39.896Z,2.92
2024-01-18T20:09:11.327Z,2.92
2024-01-18T20:11:41.942Z,2.93
2024-01-18T20:14:12.490Z,2.92
2024-01-18T20:16:43.100Z,2.95
2024-01-18T20:19:13.692Z,2.98
2024-01-18T20:21:44.217Z,2.98
2024-01-18T20:24:15.040Z,3.01
2024-01-18T20:26:45.727Z,3.02
2024-01-18T20:29:17.116Z,3.05
2024-01-18T20:31:47.708Z,3.06
2024-01-18T20:34:18.633Z,3.11
2024-01-18T20:36:50.972Z,3.15
2024-01-18T20:39:21.527Z,3.16
2024-01-18T20:41:52.104Z,3.17
2024-01-18T20:44:22.665Z,3.20
2024-01-18T20:46:53.256Z,3.23
2024-01-18T20:49:24.650Z,3.22
2024-01-18T20:51:55.186Z,3.23
2024-01-18T20:54:25.679Z,3.22
2024-01-18T20:56:56.310Z,3.18
2024-01-18T20:59:26.908Z,3.18
2024-01-18T21:01:57.514Z,3.16
2024-01-18T21:04:28.237Z,3.11
2024-01-18T21:06:58.846Z,3.05
2024-01-18T21:09:29.568Z,2.99
2024-01-18T21:12:00.058Z,2.95
2024-01-18T21:14:32.428Z,2.93
2024-01-18T21:17:03.368Z,2.90
2024-01-18T21:19:34.101Z,2.86
2024-01-18T21:22:04.742Z,2.84
2024-01-18T21:24:35.220Z,2.82
2024-01-18T21:27:05.988Z,2.83
2024-01-18T21:29:36.551Z,2.86
2024-01-18T21:32:07.677Z,2.87
2024-01-18T21:34:38.298Z,2.85
2024-01-18T21:37:09.857Z,2.84
2024-01-18T21:39:40.314Z,2.85
2024-01-18T21:42:10.911Z,2.87
2024-01-18T21:44:41.543Z,2.89
2024-01-18T21:47:12.349Z,2.88
2024-01-18T21:49:43.186Z,2.88
2024-01-18T21:52:14.104Z,2.87
2024-01-18T21:54:46.279Z,2.88
2024-01-18T21:57:19.635Z,2.88
2024-01-18T21:59:51.914Z,2.84
2024-01-18T22:02:22.698Z,2.84
2024-01-18T22:04:53.204Z,2.84
2024-01-18T22:07:23.757Z,2.84
2024-01-18T22:09:54.284Z,2.83
2024-01-18T22:12:24.846Z,2.82
2024-01-18T22:14:55.397Z,2.79
2024-01-18T22:17:26.017Z,2.73
2024-01-18T22:20:01.938Z,2.67
2024-01-18T22:22:36.007Z,2.64
2024-01-18T22:25:07.466Z,2.57
2024-01-18T22:27:37.931Z,2.47
2024-01-18T22:30:11.257Z,2.39
2024-01-18T22:32:41.828Z,2.35
2024-01-18T22:35:12.733Z,2.31
2024-01-18T22:37:43.416Z,2.30
2024-01-18T22:40:14.832Z,2.27
2024-01-18T22:42:45.409Z,2.24
2024-01-18T22:45:16.371Z,2.19
2024-01-18T22:47:46.913Z,2.19
2024-01-18T22:50:17.635Z,2.17
2024-01-18T22:52:48.298Z,2.14
2024-01-18T22:55:18.865Z,2.10
2024-01-18T22:57:49.410Z,2.04
2024-01-18T23:00:20.471Z,2.01
2024-01-18T23:02:50.955Z,1.99
2024-01-18T23:05:21.703Z,1.99
2024-01-18T23:07:52.306Z,1.96
2024-01-18T23:10:22.979Z,1.95
2024-01-18T23:12:53.493Z,1.95
2024-01-18T23:15:23.976Z,1.93
2024-01-18T23:17:54.499Z,1.93
2024-01-18T23:20:25.045Z,1.92
2024-01-18T23:22:55.563Z,1.90
2024-01-18T23:25:26.045Z,1.89
2024-01-18T23:27:56.582Z,1.85
2024-01-18T23:30:27.170Z,1.82
2024-01-18T23:32:57.699Z,1.79
2024-01-18T23:35:28.230Z,1.75
2024-01-18T23:37:58.751Z,1.72
2024-01-18T23:40:29.287Z,1.69
2024-01-18T23:42:59.747Z,1.72
2024-01-18T23:45:30.636Z,1.70
2024-01-18T23:48:01.275Z,1.67
2024-01-18T23:50:31.969Z,1.66
2024-01-18T23:53:02.544Z,1.67
2024-01-18T23:55:33.412Z,1.66
2024-01-18T23:58:03.922Z,1.61
